Time;durP1;ratioP1;P1;durP2;ratioP2;P2;SDS_P1;SDS_P2;PMS_P1;PMS_P2;Temp;Humidity;BMP_temperature;BMP_pressure;BME280_temperature;BME280_humidity;BME280_pressure;Samples;Min_cycle;Max_cycle;Signal;HPM_P1;HPM_P2
2023/06/08 00:00:26;;;;;;;8.40;6.40;;;;;;;;;;4953293;28;20046;-83
2023/06/08 00:03:12;;;;;;;10.43;6.20;;;;;;;;;;4946909;28;20058;-83
2023/06/08 00:05:59;;;;;;;11.73;7.28;;;;;;;;;;4966640;28;20039;-82
2023/06/08 00:08:44;;;;;;;10.88;6.47;;;;;;;;;;4960137;28;20035;-83
2023/06/08 00:11:29;;;;;;;11.90;5.93;;;;;;;;;;4954166;29;20046;-83
2023/06/08 00:14:17;;;;;;;9.73;6.60;;;;;;;;;;4939976;28;20302;-83
2023/06/08 00:17:04;;;;;;;8.63;6.10;;;;;;;;;;4946303;28;20047;-83
2023/06/08 00:19:52;;;;;;;10.10;5.63;;;;;;;;;;4959648;28;20043;-83
2023/06/08 00:22:37;;;;;;;10.40;6.30;;;;;;;;;;4932779;28;20480;-83
2023/06/08 00:25:26;;;;;;;11.20;5.75;;;;;;;;;;4946178;28;20047;-83
2023/06/08 00:28:11;;;;;;;8.85;5.88;;;;;;;;;;4966739;28;20059;-83
2023/06/08 00:30:57;;;;;;;8.70;6.10;;;;;;;;;;4959649;28;20495;-83
2023/06/08 00:33:43;;;;;;;9.18;6.10;;;;;;;;;;4959382;28;20043;-83
2023/06/08 00:36:28;;;;;;;10.77;6.13;;;;;;;;;;4946151;28;20043;-83
2023/06/08 00:39:14;;;;;;;8.38;6.22;;;;;;;;;;4945440;28;20421;-83
2023/06/08 00:42:01;;;;;;;11.10;6.00;;;;;;;;;;4939731;28;20411;-83
2023/06/08 00:44:47;;;;;;;9.00;5.78;;;;;;;;;;4945754;28;20051;-82
2023/06/08 00:47:33;;;;;;;6.25;4.60;;;;;;;;;;4958846;28;20039;-82
2023/06/08 00:50:18;;;;;;;7.00;5.20;;;;;;;;;;4945614;28;20035;-83
2023/06/08 00:53:04;;;;;;;8.23;4.57;;;;;;;;;;4965366;28;20506;-83
2023/06/08 00:55:53;;;;;;;6.80;4.80;;;;;;;;;;4943859;28;20044;-83
2023/06/08 00:58:39;;;;;;;9.02;4.70;;;;;;;;;;4945793;28;20051;-84
2023/06/08 01:01:29;;;;;;;9.32;4.93;;;;;;;;;;4945215;28;20047;-83
2023/06/08 01:04:14;;;;;;;6.60;4.80;;;;;;;;;;4944972;28;20051;-85
2023/06/08 01:07:14;;;;;;;6.75;4.75;;;;;;;;;;4952749;28;20039;-84
2023/06/08 01:10:33;;;;;;;5.38;4.20;;;;;;;;;;4952535;28;20039;-83
2023/06/08 01:13:36;;;;;;;6.20;3.90;;;;;;;;;;4932863;28;20047;-83
2023/06/08 01:16:27;;;;;;;8.15;3.55;;;;;;;;;;4938960;29;20408;-83
2023/06/08 01:19:18;;;;;;;5.40;4.05;;;;;;;;;;4952819;28;20051;-84
2023/06/08 01:22:14;;;;;;;5.88;3.40;;;;;;;;;;4945321;28;20399;-83
2023/06/08 01:25:00;;;;;;;9.20;4.13;;;;;;;;;;4951749;28;20047;-84
2023/06/08 01:27:48;;;;;;;4.90;3.80;;;;;;;;;;4945482;28;20039;-83
2023/06/08 01:30:33;;;;;;;7.38;4.15;;;;;;;;;;4958394;28;20047;-83
2023/06/08 01:33:20;;;;;;;7.57;4.07;;;;;;;;;;4944905;28;20046;-82
2023/06/08 01:36:34;;;;;;;5.03;3.97;;;;;;;;;;4944673;28;20055;-83
2023/06/08 01:39:44;;;;;;;9.40;4.25;;;;;;;;;;4951632;28;20039;-82
2023/06/08 01:42:32;;;;;;;8.80;3.70;;;;;;;;;;4952995;29;20043;-82
2023/06/08 01:45:21;;;;;;;8.30;3.97;;;;;;;;;;4944281;28;20039;-83
2023/06/08 01:48:08;;;;;;;6.57;3.72;;;;;;;;;;4944609;28;20034;-83
2023/06/08 01:50:53;;;;;;;6.15;3.95;;;;;;;;;;4944380;28;20399;-83
2023/06/08 01:53:38;;;;;;;7.10;4.13;;;;;;;;;;4951533;28;20042;-83
2023/06/08 01:56:28;;;;;;;7.22;4.13;;;;;;;;;;4944878;28;20043;-82
2023/06/08 01:59:14;;;;;;;6.65;3.67;;;;;;;;;;4944415;28;20058;-83
2023/06/08 02:01:59;;;;;;;6.70;4.40;;;;;;;;;;4944432;28;20043;-83
2023/06/08 02:04:45;;;;;;;8.15;4.35;;;;;;;;;;4943968;28;20055;-83
2023/06/08 02:07:30;;;;;;;5.90;3.88;;;;;;;;;;4944756;28;20046;-83
2023/06/08 02:10:17;;;;;;;5.68;3.42;;;;;;;;;;4943978;28;20043;-83
2023/06/08 02:13:02;;;;;;;7.85;3.70;;;;;;;;;;4943361;28;20043;-83
2023/06/08 02:15:47;;;;;;;5.85;3.90;;;;;;;;;;4938087;28;20050;-83
2023/06/08 02:18:34;;;;;;;6.30;3.70;;;;;;;;;;4937760;28;20047;-84
2023/06/08 02:21:19;;;;;;;5.32;3.85;;;;;;;;;;4943893;28;20396;-83
2023/06/08 02:24:05;;;;;;;5.60;3.75;;;;;;;;;;4943454;28;20043;-83
2023/06/08 02:26:54;;;;;;;5.93;3.85;;;;;;;;;;4944501;28;20046;-84
2023/06/08 02:29:41;;;;;;;5.60;3.90;;;;;;;;;;4943913;28;20051;-83
2023/06/08 02:32:27;;;;;;;8.15;4.22;;;;;;;;;;4943567;28;20047;-83
2023/06/08 02:35:12;;;;;;;7.50;3.95;;;;;;;;;;4943714;28;20035;-84
2023/06/08 02:38:02;;;;;;;6.20;4.13;;;;;;;;;;4950051;28;20050;-83
2023/06/08 02:40:48;;;;;;;6.68;3.83;;;;;;;;;;4957381;28;20488;-83
2023/06/08 02:43:35;;;;;;;5.65;3.90;;;;;;;;;;4943897;28;20043;-84
2023/06/08 02:46:20;;;;;;;6.03;4.32;;;;;;;;;;4937218;28;20035;-83
2023/06/08 02:49:06;;;;;;;8.15;4.40;;;;;;;;;;4943902;29;20051;-83
2023/06/08 02:51:52;;;;;;;7.70;4.35;;;;;;;;;;4957758;28;20047;-83
2023/06/08 02:54:37;;;;;;;6.22;3.90;;;;;;;;;;4943863;29;20054;-83
2023/06/08 02:57:22;;;;;;;5.25;3.72;;;;;;;;;;4937965;29;20047;-83
2023/06/08 03:00:13;;;;;;;4.57;3.95;;;;;;;;;;4937379;29;20043;-83
2023/06/08 03:03:24;;;;;;;6.00;3.92;;;;;;;;;;4946946;29;20043;-84
2023/06/08 03:06:17;;;;;;;7.38;4.18;;;;;;;;;;4943839;28;20106;-84
2023/06/08 03:09:04;;;;;;;6.90;4.03;;;;;;;;;;4943944;29;20039;-83
2023/06/08 03:11:53;;;;;;;8.30;4.00;;;;;;;;;;4944149;28;20039;-83
2023/06/08 03:14:40;;;;;;;6.53;3.97;;;;;;;;;;4943147;29;20039;-83
2023/06/08 03:17:27;;;;;;;8.30;3.70;;;;;;;;;;4967143;28;20055;-83
2023/06/08 03:20:12;;;;;;;5.97;4.47;;;;;;;;;;4946955;28;20043;-83
2023/06/08 03:23:09;;;;;;;7.07;5.10;;;;;;;;;;4967833;28;20043;-84
2023/06/08 03:25:54;;;;;;;10.23;4.57;;;;;;;;;;4947702;28;20492;-83
2023/06/08 03:28:40;;;;;;;8.98;4.30;;;;;;;;;;4953392;28;20039;-83
2023/06/08 03:31:29;;;;;;;10.55;4.95;;;;;;;;;;4947005;28;20051;-83
2023/06/08 03:34:16;;;;;;;6.85;4.10;;;;;;;;;;4954302;29;20403;-83
2023/06/08 03:37:01;;;;;;;6.85;4.15;;;;;;;;;;4934013;28;20047;-83
2023/06/08 03:39:48;;;;;;;10.57;4.60;;;;;;;;;;4946737;28;20051;-83
2023/06/08 03:42:33;;;;;;;6.20;4.25;;;;;;;;;;4946840;28;20043;-83
2023/06/08 03:45:19;;;;;;;9.85;4.63;;;;;;;;;;4940871;28;20403;-83
2023/06/08 03:48:09;;;;;;;7.47;4.40;;;;;;;;;;4946663;28;20047;-83
2023/06/08 03:50:57;;;;;;;6.03;3.83;;;;;;;;;;4946957;28;20047;-83
2023/06/08 03:53:44;;;;;;;6.53;4.45;;;;;;;;;;4947151;28;20039;-82
2023/06/08 03:56:29;;;;;;;8.73;4.50;;;;;;;;;;4956120;28;20055;-83
2023/06/08 03:59:14;;;;;;;8.88;4.38;;;;;;;;;;4946961;28;20480;-83
2023/06/08 04:02:02;;;;;;;7.30;3.85;;;;;;;;;;4940127;28;20043;-83
2023/06/08 04:04:48;;;;;;;9.50;4.72;;;;;;;;;;4946838;28;20047;-83
2023/06/08 04:07:36;;;;;;;6.55;4.80;;;;;;;;;;4946559;28;20058;-82
2023/06/08 04:10:22;;;;;;;7.68;4.38;;;;;;;;;;4954325;29;20051;-84
2023/06/08 04:13:07;;;;;;;9.02;4.68;;;;;;;;;;4940121;28;20043;-83
2023/06/08 04:15:55;;;;;;;8.95;4.78;;;;;;;;;;4945580;28;20039;-83
2023/06/08 04:18:41;;;;;;;7.88;4.60;;;;;;;;;;4939819;28;20043;-83
2023/06/08 04:21:28;;;;;;;7.57;4.97;;;;;;;;;;4946275;28;20039;-84
2023/06/08 04:24:21;;;;;;;6.72;4.43;;;;;;;;;;4940028;28;20043;-84
2023/06/08 04:27:07;;;;;;;7.15;4.30;;;;;;;;;;4946235;28;20047;-83
2023/06/08 04:29:53;;;;;;;5.30;3.60;;;;;;;;;;4939881;28;20055;-83
2023/06/08 04:32:38;;;;;;;5.80;3.60;;;;;;;;;;4959529;28;20039;-83
2023/06/08 04:35:24;;;;;;;9.80;4.05;;;;;;;;;;4946078;28;20050;-84
2023/06/08 04:38:14;;;;;;;5.60;3.88;;;;;;;;;;4946143;28;20039;-83
2023/06/08 04:41:01;;;;;;;5.88;4.20;;;;;;;;;;4959508;28;20483;-84
2023/06/08 04:43:52;;;;;;;7.65;4.57;;;;;;;;;;4946883;28;20039;-84
2023/06/08 04:46:42;;;;;;;7.55;4.10;;;;;;;;;;4945151;28;20406;-84
2023/06/08 04:49:34;;;;;;;5.88;4.13;;;;;;;;;;4946048;28;20043;-84
2023/06/08 04:52:20;;;;;;;9.00;3.70;;;;;;;;;;4952500;28;20475;-85
2023/06/08 04:55:07;;;;;;;4.57;3.88;;;;;;;;;;4945134;28;20043;-84
2023/06/08 04:57:52;;;;;;;9.30;3.72;;;;;;;;;;4944691;28;20072;-84
2023/06/08 05:00:38;;;;;;;8.13;4.07;;;;;;;;;;4939376;29;20031;-85
2023/06/08 05:03:27;;;;;;;9.55;4.40;;;;;;;;;;4938679;28;20035;-85
2023/06/08 05:06:13;;;;;;;6.15;4.15;;;;;;;;;;4945343;28;20039;-82
2023/06/08 05:08:58;;;;;;;7.60;4.57;;;;;;;;;;4965358;28;20051;-82
2023/06/08 05:11:44;;;;;;;8.40;4.60;;;;;;;;;;4939401;29;20035;-82
2023/06/08 05:14:29;;;;;;;12.10;4.68;;;;;;;;;;4945607;28;20047;-82
2023/06/08 05:17:15;;;;;;;8.65;4.32;;;;;;;;;;4945029;28;20050;-82
2023/06/08 05:20:00;;;;;;;7.45;4.03;;;;;;;;;;4944459;29;20051;-83
2023/06/08 05:22:46;;;;;;;7.45;4.20;;;;;;;;;;4944626;28;20411;-83
2023/06/08 05:25:36;;;;;;;8.65;4.53;;;;;;;;;;4945506;28;20047;-84
2023/06/08 05:28:22;;;;;;;5.93;4.00;;;;;;;;;;4944766;28;20069;-83
2023/06/08 05:31:07;;;;;;;8.52;4.68;;;;;;;;;;4938107;28;20055;-82
2023/06/08 05:33:53;;;;;;;10.23;4.45;;;;;;;;;;4938636;29;20500;-82
2023/06/08 05:36:38;;;;;;;7.82;4.22;;;;;;;;;;4938029;29;20035;-84
2023/06/08 05:39:23;;;;;;;9.45;4.25;;;;;;;;;;4943934;28;20051;-84
2023/06/08 05:42:10;;;;;;;7.57;3.92;;;;;;;;;;4944352;28;20043;-82
2023/06/08 05:44:55;;;;;;;8.82;4.07;;;;;;;;;;4938322;29;20419;-83
2023/06/08 05:47:40;;;;;;;5.45;4.15;;;;;;;;;;4950833;28;20047;-84
2023/06/08 05:50:25;;;;;;;6.88;3.80;;;;;;;;;;4937858;28;20051;-82
2023/06/08 05:53:10;;;;;;;6.78;4.35;;;;;;;;;;4936692;29;20114;-85
2023/06/08 05:55:56;;;;;;;5.40;4.10;;;;;;;;;;4947676;28;20043;-82
2023/06/08 05:58:43;;;;;;;9.45;4.63;;;;;;;;;;4957774;28;20047;-84
2023/06/08 06:01:28;;;;;;;8.15;4.13;;;;;;;;;;4944439;28;20039;-82
2023/06/08 06:04:14;;;;;;;5.78;3.90;;;;;;;;;;4944818;28;20039;-82
2023/06/08 06:07:00;;;;;;;7.80;5.00;;;;;;;;;;4936895;28;20039;-80
2023/06/08 06:09:45;;;;;;;9.50;4.78;;;;;;;;;;4937697;28;20043;-86
2023/06/08 06:12:31;;;;;;;9.43;4.63;;;;;;;;;;4944137;28;20047;-84
2023/06/08 06:15:18;;;;;;;9.25;5.50;;;;;;;;;;4963929;28;20412;-86
2023/06/08 06:18:04;;;;;;;14.20;4.70;;;;;;;;;;4945060;28;20395;-85
2023/06/08 06:20:50;;;;;;;6.72;4.70;;;;;;;;;;4951244;28;20055;-85
2023/06/08 06:23:35;;;;;;;7.22;5.00;;;;;;;;;;4944246;28;20400;-83
2023/06/08 06:26:21;;;;;;;7.30;5.38;;;;;;;;;;4938217;28;20407;-82
2023/06/08 06:29:06;;;;;;;9.85;5.22;;;;;;;;;;4931599;28;20043;-81
2023/06/08 06:31:51;;;;;;;10.25;5.72;;;;;;;;;;4939823;28;20043;-84
2023/06/08 06:34:37;;;;;;;9.93;5.38;;;;;;;;;;4945657;28;20047;-85
2023/06/08 06:37:23;;;;;;;9.13;4.75;;;;;;;;;;4944606;28;20050;-85
2023/06/08 06:40:09;;;;;;;7.05;5.05;;;;;;;;;;4945824;28;20039;-80
2023/06/08 06:42:54;;;;;;;8.80;5.32;;;;;;;;;;4946373;28;20047;-81
2023/06/08 06:45:50;;;;;;;7.97;5.30;;;;;;;;;;4946162;28;20047;-83
2023/06/08 06:48:35;;;;;;;12.10;4.70;;;;;;;;;;4952244;28;20047;-83
2023/06/08 06:51:21;;;;;;;10.68;5.72;;;;;;;;;;4928566;28;20500;-83
2023/06/08 06:54:06;;;;;;;8.07;5.53;;;;;;;;;;4946262;28;20055;-83
2023/06/08 06:56:52;;;;;;;7.63;5.45;;;;;;;;;;4947015;29;20047;-81
2023/06/08 06:59:38;;;;;;;7.05;5.28;;;;;;;;;;4968419;28;20495;-82
2023/06/08 07:02:28;;;;;;;7.40;5.57;;;;;;;;;;4957763;28;20400;-84
2023/06/08 07:05:13;;;;;;;7.10;5.30;;;;;;;;;;4970705;28;20055;-82
2023/06/08 07:07:59;;;;;;;7.57;5.38;;;;;;;;;;4944605;29;20705;-84
2023/06/08 07:10:45;;;;;;;11.30;5.50;;;;;;;;;;4963960;28;20039;-83
2023/06/08 07:13:31;;;;;;;10.80;5.97;;;;;;;;;;4944040;29;20043;-85
2023/06/08 07:16:17;;;;;;;11.85;5.78;;;;;;;;;;4950240;28;20492;-83
2023/06/08 07:19:03;;;;;;;13.02;5.65;;;;;;;;;;4950910;28;20035;-84
2023/06/08 07:21:51;;;;;;;7.97;5.43;;;;;;;;;;4950005;28;20051;-85
2023/06/08 07:24:36;;;;;;;7.28;5.13;;;;;;;;;;4951591;28;20043;-84
2023/06/08 07:27:21;;;;;;;12.77;5.25;;;;;;;;;;4950083;28;20487;-82
2023/06/08 07:30:08;;;;;;;6.88;5.07;;;;;;;;;;4951105;28;20050;-83
2023/06/08 07:32:54;;;;;;;7.65;4.95;;;;;;;;;;4957107;28;20043;-82
2023/06/08 07:35:39;;;;;;;7.53;4.38;;;;;;;;;;4963533;28;20039;-84
2023/06/08 07:38:25;;;;;;;7.25;4.82;;;;;;;;;;4957156;29;20039;-83
2023/06/08 07:41:11;;;;;;;8.40;4.80;;;;;;;;;;4950191;28;20043;-83
2023/06/08 07:43:57;;;;;;;9.63;5.18;;;;;;;;;;4957906;28;20059;-84
2023/06/08 07:46:42;;;;;;;7.45;4.90;;;;;;;;;;4956658;28;20043;-83
2023/06/08 07:49:30;;;;;;;7.78;5.07;;;;;;;;;;4963637;28;20051;-84
2023/06/08 07:52:15;;;;;;;7.18;4.90;;;;;;;;;;4957312;28;20043;-82
2023/06/08 07:55:02;;;;;;;5.97;4.22;;;;;;;;;;4957646;28;20051;-83
2023/06/08 07:57:48;;;;;;;8.50;5.32;;;;;;;;;;4969469;28;20043;-85
2023/06/08 08:00:35;;;;;;;8.30;5.25;;;;;;;;;;4955145;29;20051;-85
2023/06/08 08:03:21;;;;;;;7.57;4.80;;;;;;;;;;4945266;28;20054;-85
2023/06/08 08:06:06;;;;;;;7.00;4.80;;;;;;;;;;4959231;28;20055;-84
2023/06/08 08:08:52;;;;;;;6.97;4.75;;;;;;;;;;4944959;28;20043;-83
2023/06/08 08:11:38;;;;;;;5.57;4.28;;;;;;;;;;4939857;28;20039;-85
2023/06/08 08:14:23;;;;;;;7.50;5.03;;;;;;;;;;4940069;29;20496;-85
2023/06/08 08:17:09;;;;;;;6.68;4.50;;;;;;;;;;4946597;28;20043;-83
2023/06/08 08:19:55;;;;;;;6.88;4.25;;;;;;;;;;4946784;28;20043;-82
2023/06/08 08:22:40;;;;;;;8.15;4.40;;;;;;;;;;4965677;28;20055;-85
2023/06/08 08:25:26;;;;;;;9.68;4.32;;;;;;;;;;4946286;28;20051;-83
2023/06/08 08:28:12;;;;;;;7.20;4.68;;;;;;;;;;4946104;28;20043;-83
2023/06/08 08:30:59;;;;;;;8.85;4.60;;;;;;;;;;4946305;28;20479;-86
2023/06/08 08:33:44;;;;;;;6.07;4.40;;;;;;;;;;4940016;29;20043;-85
2023/06/08 08:36:29;;;;;;;8.70;4.85;;;;;;;;;;4945564;28;20047;-83
2023/06/08 08:39:15;;;;;;;7.00;4.65;;;;;;;;;;4945997;28;20043;-83
2023/06/08 08:42:07;;;;;;;8.75;4.70;;;;;;;;;;4945681;28;20046;-85
2023/06/08 08:44:55;;;;;;;5.93;4.32;;;;;;;;;;4952473;28;20496;-83
2023/06/08 08:47:41;;;;;;;6.80;4.55;;;;;;;;;;4932268;28;20054;-84
2023/06/08 08:50:33;;;;;;;6.40;4.50;;;;;;;;;;4945479;28;20051;-84
2023/06/08 08:53:27;;;;;;;8.30;4.75;;;;;;;;;;4945749;28;20043;-80
2023/06/08 08:56:14;;;;;;;5.40;4.15;;;;;;;;;;4955424;28;20055;-82
2023/06/08 08:59:00;;;;;;;6.30;4.55;;;;;;;;;;4941733;28;20399;-82
2023/06/08 09:01:45;;;;;;;6.82;3.78;;;;;;;;;;4945825;28;20415;-86
2023/06/08 09:04:31;;;;;;;5.95;4.00;;;;;;;;;;4947886;28;20047;-83
2023/06/08 09:07:18;;;;;;;7.25;4.38;;;;;;;;;;4941558;28;20491;-84
2023/06/08 09:10:15;;;;;;;8.23;4.05;;;;;;;;;;4937775;29;20046;-84
2023/06/08 09:13:01;;;;;;;5.25;3.65;;;;;;;;;;4931136;28;20051;-83
2023/06/08 09:15:47;;;;;;;6.00;4.25;;;;;;;;;;4931686;28;20042;-84
2023/06/08 09:18:33;;;;;;;8.50;4.50;;;;;;;;;;4945573;28;20038;-84
2023/06/08 09:21:27;;;;;;;7.25;4.28;;;;;;;;;;4944464;28;20043;-85
2023/06/08 09:24:18;;;;;;;;;;;;;;;;;;4947525;28;20051;-83
2023/06/08 09:27:06;;;;;;;6.38;4.30;;;;;;;;;;4933373;28;19914;-85
2023/06/08 09:29:52;;;;;;;6.63;4.50;;;;;;;;;;4948270;28;20050;-82
2023/06/08 09:32:37;;;;;;;11.45;4.90;;;;;;;;;;4947582;28;20043;-85
2023/06/08 09:35:23;;;;;;;8.10;4.78;;;;;;;;;;4952019;28;20047;-84
2023/06/08 09:38:18;;;;;;;7.32;4.70;;;;;;;;;;4938561;29;20408;-83
2023/06/08 09:41:14;;;;;;;;;;;;;;;;;;4973605;28;20039;-81
2023/06/08 09:43:59;;;;;;;9.25;4.57;;;;;;;;;;4954032;28;20378;-82
2023/06/08 09:46:48;;;;;;;9.25;4.25;;;;;;;;;;4952490;29;20051;-81
2023/06/08 09:49:33;;;;;;;5.55;3.97;;;;;;;;;;4925536;28;20400;-84
2023/06/08 09:52:23;;;;;;;8.77;4.10;;;;;;;;;;4960315;28;20050;-82
2023/06/08 09:55:10;;;;;;;8.75;5.15;;;;;;;;;;4959278;28;20047;-84
2023/06/08 09:57:57;;;;;;;9.82;4.78;;;;;;;;;;4937352;28;20051;-84
2023/06/08 10:00:43;;;;;;;5.85;4.50;;;;;;;;;;4952602;28;20046;-82
2023/06/08 10:03:40;;;;;;;7.45;4.63;;;;;;;;;;4945085;28;20054;-83
2023/06/08 10:06:26;;;;;;;7.18;5.07;;;;;;;;;;4937658;28;20035;-85
2023/06/08 10:09:14;;;;;;;9.05;4.32;;;;;;;;;;4960528;28;20491;-84
2023/06/08 10:12:01;;;;;;;7.95;4.22;;;;;;;;;;4952787;28;20043;-84
2023/06/08 10:14:49;;;;;;;6.57;4.20;;;;;;;;;;4959309;28;20483;-85
2023/06/08 10:17:36;;;;;;;8.55;4.10;;;;;;;;;;4967755;28;20043;-83
2023/06/08 10:20:22;;;;;;;5.93;4.10;;;;;;;;;;4926355;28;20055;-85
2023/06/08 10:23:08;;;;;;;8.52;3.85;;;;;;;;;;4933263;28;20047;-82
2023/06/08 10:25:55;;;;;;;4.85;3.72;;;;;;;;;;4952108;28;20046;-82
2023/06/08 10:29:03;;;;;;;4.60;3.67;;;;;;;;;;4937574;29;20407;-82
2023/06/08 10:31:48;;;;;;;6.35;4.10;;;;;;;;;;4943662;28;20035;-81
2023/06/08 10:34:40;;;;;;;8.27;4.07;;;;;;;;;;4946449;28;20042;-84
2023/06/08 10:37:28;;;;;;;4.18;3.47;;;;;;;;;;4952176;28;20043;-81
2023/06/08 10:40:14;;;;;;;8.15;3.72;;;;;;;;;;4960209;28;20064;-83
2023/06/08 10:42:59;;;;;;;5.85;3.70;;;;;;;;;;4959815;28;20043;-81
2023/06/08 10:45:45;;;;;;;7.40;3.55;;;;;;;;;;4971339;28;20046;-84
2023/06/08 10:48:39;;;;;;;6.95;4.03;;;;;;;;;;4958342;28;20039;-84
2023/06/08 10:51:24;;;;;;;;;;;;;;;;;;4944397;29;21726;-84
2023/06/08 10:54:23;;;;;;;6.72;4.03;;;;;;;;;;4937496;29;19918;-84
2023/06/08 10:57:09;;;;;;;7.05;3.45;;;;;;;;;;4927710;28;20042;-83
2023/06/08 10:59:55;;;;;;;11.60;3.70;;;;;;;;;;4944587;28;20050;-84
2023/06/08 11:02:41;;;;;;;5.68;3.15;;;;;;;;;;4949116;28;20415;-82
2023/06/08 11:05:30;;;;;;;8.32;2.83;;;;;;;;;;4942854;29;20039;-84
2023/06/08 11:08:17;;;;;;;4.45;3.08;;;;;;;;;;4951953;28;20039;-82
2023/06/08 11:11:13;;;;;;;5.80;2.85;;;;;;;;;;4960004;28;20070;-81
2023/06/08 11:14:04;;;;;;;3.85;2.80;;;;;;;;;;4950763;28;20039;-83
2023/06/08 11:16:54;;;;;;;3.85;3.00;;;;;;;;;;4949978;28;20039;-85
2023/06/08 11:19:40;;;;;;;8.27;3.67;;;;;;;;;;4937533;29;20047;-84
2023/06/08 11:22:25;;;;;;;7.57;3.78;;;;;;;;;;4959744;28;20051;-82
2023/06/08 11:25:10;;;;;;;6.57;3.78;;;;;;;;;;4950362;29;20063;-80
2023/06/08 11:27:57;;;;;;;5.70;3.75;;;;;;;;;;4959802;28;20555;-82
2023/06/08 11:30:44;;;;;;;5.22;3.70;;;;;;;;;;4943371;28;20043;-82
2023/06/08 11:33:33;;;;;;;4.85;3.78;;;;;;;;;;4937552;28;20043;-82
2023/06/08 11:36:18;;;;;;;4.10;3.40;;;;;;;;;;4957977;28;20412;-85
2023/06/08 11:39:03;;;;;;;5.97;3.72;;;;;;;;;;4948243;28;20046;-84
2023/06/08 11:41:49;;;;;;;6.60;3.88;;;;;;;;;;4953077;28;20047;-81
2023/06/08 11:44:35;;;;;;;6.07;4.03;;;;;;;;;;4940296;28;20044;-81
2023/06/08 11:47:20;;;;;;;6.80;4.38;;;;;;;;;;4959183;28;20051;-83
2023/06/08 11:50:07;;;;;;;5.47;3.95;;;;;;;;;;4959122;28;20054;-86
2023/06/08 11:52:54;;;;;;;5.00;4.05;;;;;;;;;;4947203;28;20043;-85
2023/06/08 11:55:43;;;;;;;5.72;4.63;;;;;;;;;;4940496;28;20055;-82
2023/06/08 11:58:31;;;;;;;5.45;3.92;;;;;;;;;;4963169;28;20059;-83
2023/06/08 12:01:16;;;;;;;6.60;4.00;;;;;;;;;;4953441;28;20047;-85
2023/06/08 12:04:13;;;;;;;5.03;3.83;;;;;;;;;;4938373;28;20055;-82
2023/06/08 12:07:07;;;;;;;5.05;3.80;;;;;;;;;;4939833;28;20396;-84
2023/06/08 12:09:54;;;;;;;6.60;3.88;;;;;;;;;;4946297;28;20043;-83
2023/06/08 12:12:39;;;;;;;7.05;4.30;;;;;;;;;;4945965;28;20051;-82
2023/06/08 12:15:26;;;;;;;6.35;4.00;;;;;;;;;;4946180;29;20047;-85
2023/06/08 12:18:15;;;;;;;5.28;3.97;;;;;;;;;;4946242;28;20043;-83
2023/06/08 12:21:03;;;;;;;5.28;4.20;;;;;;;;;;4953392;28;20483;-81
2023/06/08 12:23:47;;;;;;;7.55;4.53;;;;;;;;;;4954117;29;20059;-82
2023/06/08 12:26:32;;;;;;;4.90;4.03;;;;;;;;;;4959058;28;20085;-82
2023/06/08 12:29:19;;;;;;;5.18;4.22;;;;;;;;;;4943779;28;20051;-81
2023/06/08 12:32:05;;;;;;;8.05;4.07;;;;;;;;;;4954232;28;20051;-83
2023/06/08 12:34:50;;;;;;;6.10;3.67;;;;;;;;;;4939199;29;20039;-82
2023/06/08 12:37:36;;;;;;;5.90;3.78;;;;;;;;;;4959383;28;20404;-82
2023/06/08 12:40:21;;;;;;;6.15;3.95;;;;;;;;;;4953037;29;20036;-82
2023/06/08 12:43:07;;;;;;;4.53;3.80;;;;;;;;;;4945675;28;20048;-81
2023/06/08 12:45:53;;;;;;;6.80;4.05;;;;;;;;;;4939562;29;20043;-82
2023/06/08 12:48:47;;;;;;;5.13;3.50;;;;;;;;;;4954477;28;20051;-81
2023/06/08 12:51:40;;;;;;;5.30;3.90;;;;;;;;;;4956788;29;20054;-83
2023/06/08 12:54:25;;;;;;;6.78;4.55;;;;;;;;;;4958189;28;20039;-83
2023/06/08 12:57:11;;;;;;;5.68;4.07;;;;;;;;;;4959344;28;20055;-85
2023/06/08 12:59:56;;;;;;;6.25;4.05;;;;;;;;;;4959616;28;20051;-82
2023/06/08 13:02:42;;;;;;;6.10;4.07;;;;;;;;;;4938563;28;20035;-83
2023/06/08 13:05:37;;;;;;;5.47;4.03;;;;;;;;;;4945545;28;20047;-82
2023/06/08 13:08:40;;;;;;;11.50;4.10;;;;;;;;;;4949536;28;20407;-82
2023/06/08 13:11:39;;;;;;;5.07;4.22;;;;;;;;;;4952677;28;20420;-82
2023/06/08 13:14:33;;;;;;;8.23;3.97;;;;;;;;;;4939462;29;20047;-82
2023/06/08 13:17:25;;;;;;;4.57;3.75;;;;;;;;;;4952951;28;20051;-82
2023/06/08 13:20:26;;;;;;;6.72;3.65;;;;;;;;;;4952501;28;20399;-83
2023/06/08 13:23:17;;;;;;;6.53;4.45;;;;;;;;;;4950122;28;20261;-83
2023/06/08 13:26:12;;;;;;;5.28;3.60;;;;;;;;;;4959338;28;20031;-84
2023/06/08 13:29:12;;;;;;;8.00;4.20;;;;;;;;;;4938804;29;20043;-82
2023/06/08 13:32:01;;;;;;;7.22;4.13;;;;;;;;;;4951523;28;20051;-82
2023/06/08 13:34:46;;;;;;;5.40;3.97;;;;;;;;;;4943691;28;20051;-82
2023/06/08 13:37:31;;;;;;;4.90;3.80;;;;;;;;;;4946164;28;20043;-83
2023/06/08 13:40:16;;;;;;;5.03;4.30;;;;;;;;;;4944209;28;20042;-83
2023/06/08 13:43:02;;;;;;;9.45;5.32;;;;;;;;;;4932012;28;20500;-83
2023/06/08 13:45:48;;;;;;;6.35;4.10;;;;;;;;;;4934991;29;20047;-82
2023/06/08 13:48:33;;;;;;;5.72;4.38;;;;;;;;;;4938156;28;20044;-83
2023/06/08 13:51:19;;;;;;;4.68;3.97;;;;;;;;;;4941836;28;20050;-84
2023/06/08 13:54:05;;;;;;;4.82;3.78;;;;;;;;;;4931874;29;20765;-83
2023/06/08 13:56:50;;;;;;;4.90;3.83;;;;;;;;;;4937124;29;20055;-83
2023/06/08 13:59:35;;;;;;;6.07;4.50;;;;;;;;;;4937180;28;20039;-83
2023/06/08 14:02:21;;;;;;;5.88;4.40;;;;;;;;;;4957621;28;20043;-83
2023/06/08 14:05:07;;;;;;;4.43;4.03;;;;;;;;;;4952352;29;20035;-84
2023/06/08 14:07:52;;;;;;;7.97;4.30;;;;;;;;;;4944665;28;20403;-83
2023/06/08 14:10:38;;;;;;;5.15;4.20;;;;;;;;;;4952128;29;20444;-83
2023/06/08 14:13:23;;;;;;;6.10;4.53;;;;;;;;;;4951133;28;20487;-83
2023/06/08 14:16:11;;;;;;;4.63;3.97;;;;;;;;;;4963850;28;20491;-83
2023/06/08 14:19:00;;;;;;;6.03;4.05;;;;;;;;;;4950214;28;20055;-83
2023/06/08 14:21:47;;;;;;;5.15;3.95;;;;;;;;;;4950563;28;20399;-81
2023/06/08 14:24:32;;;;;;;6.95;4.05;;;;;;;;;;4948674;28;20047;-81
2023/06/08 14:27:18;;;;;;;7.47;4.15;;;;;;;;;;4947701;28;20047;-81
2023/06/08 14:30:04;;;;;;;5.90;4.30;;;;;;;;;;4939241;28;20039;-81
2023/06/08 14:32:51;;;;;;;6.00;4.20;;;;;;;;;;4951062;28;20059;-82
2023/06/08 14:35:43;;;;;;;8.77;4.15;;;;;;;;;;4943270;28;20043;-83
2023/06/08 14:38:29;;;;;;;5.50;4.30;;;;;;;;;;4948611;28;20043;-83
2023/06/08 14:41:15;;;;;;;5.43;3.97;;;;;;;;;;4961601;28;20043;-83
2023/06/08 14:44:03;;;;;;;4.95;4.45;;;;;;;;;;4938040;29;20055;-85
2023/06/08 14:46:51;;;;;;;8.65;6.28;;;;;;;;;;4946430;28;20054;-83
2023/06/08 14:49:37;;;;;;;7.10;4.32;;;;;;;;;;4947731;28;20051;-82
2023/06/08 14:52:22;;;;;;;6.90;4.95;;;;;;;;;;4949904;28;20055;-82
2023/06/08 14:55:08;;;;;;;6.35;5.28;;;;;;;;;;4944394;28;20408;-83
2023/06/08 14:57:54;;;;;;;7.70;5.00;;;;;;;;;;4937548;28;21005;-82
2023/06/08 15:00:43;;;;;;;7.93;4.95;;;;;;;;;;4952734;28;20039;-82
2023/06/08 15:03:29;;;;;;;9.35;5.22;;;;;;;;;;4951891;28;20059;-85
2023/06/08 15:06:14;;;;;;;10.80;5.25;;;;;;;;;;4944050;28;20043;-83
2023/06/08 15:09:00;;;;;;;8.00;5.35;;;;;;;;;;4951578;29;20051;-82
2023/06/08 15:11:45;;;;;;;5.97;5.07;;;;;;;;;;4953122;28;20069;-82
2023/06/08 15:14:31;;;;;;;8.32;5.20;;;;;;;;;;4967550;28;20495;-82
2023/06/08 15:17:17;;;;;;;6.25;4.88;;;;;;;;;;4941248;29;20484;-81
2023/06/08 15:20:06;;;;;;;6.60;4.95;;;;;;;;;;4955875;29;20048;-82
2023/06/08 15:22:51;;;;;;;9.20;5.00;;;;;;;;;;4940491;29;20043;-81
2023/06/08 15:25:36;;;;;;;6.65;4.68;;;;;;;;;;4955498;29;20388;-81
2023/06/08 15:28:22;;;;;;;7.57;5.10;;;;;;;;;;4940661;28;20039;-81
2023/06/08 15:31:08;;;;;;;7.75;5.13;;;;;;;;;;4941224;29;20047;-81
2023/06/08 15:33:53;;;;;;;9.68;5.28;;;;;;;;;;4955093;29;20492;-81
2023/06/08 15:36:39;;;;;;;10.38;4.72;;;;;;;;;;4946805;28;20066;-81
2023/06/08 15:39:24;;;;;;;7.47;4.70;;;;;;;;;;4954717;28;20046;-82
2023/06/08 15:42:11;;;;;;;8.07;5.28;;;;;;;;;;4947656;28;20046;-82
2023/06/08 15:44:57;;;;;;;6.10;4.60;;;;;;;;;;4955246;28;20039;-83
2023/06/08 15:47:42;;;;;;;5.75;4.47;;;;;;;;;;4968280;28;20051;-83
2023/06/08 15:50:33;;;;;;;5.85;4.95;;;;;;;;;;4960622;28;20488;-82
2023/06/08 15:53:24;;;;;;;7.05;4.82;;;;;;;;;;4955013;28;20055;-83
2023/06/08 15:56:10;;;;;;;8.10;5.10;;;;;;;;;;4954682;29;20047;-82
2023/06/08 15:59:02;;;;;;;6.90;4.80;;;;;;;;;;4944413;28;20048;-82
2023/06/08 16:01:51;;;;;;;9.25;5.00;;;;;;;;;;4952986;28;20380;-83
2023/06/08 16:04:38;;;;;;;7.13;5.10;;;;;;;;;;4944814;28;20472;-82
2023/06/08 16:07:24;;;;;;;6.70;4.97;;;;;;;;;;4951959;29;20396;-82
2023/06/08 16:10:10;;;;;;;6.45;4.82;;;;;;;;;;4952585;29;20047;-82
2023/06/08 16:12:55;;;;;;;9.38;5.30;;;;;;;;;;4938525;29;20047;-83
2023/06/08 16:15:46;;;;;;;6.72;4.75;;;;;;;;;;4955100;28;20047;-84
2023/06/08 16:18:32;;;;;;;7.43;5.03;;;;;;;;;;4954768;28;20484;-83
2023/06/08 16:21:18;;;;;;;6.75;4.90;;;;;;;;;;4955083;28;20069;-82
2023/06/08 16:24:18;;;;;;;8.95;5.88;;;;;;;;;;4939486;29;20051;-82
2023/06/08 16:27:04;;;;;;;7.57;4.28;;;;;;;;;;4954967;28;20392;-83
2023/06/08 16:29:51;;;;;;;8.75;4.95;;;;;;;;;;4955271;28;20059;-83
2023/06/08 16:32:39;;;;;;;5.95;4.80;;;;;;;;;;4946695;28;20051;-88
2023/06/08 16:35:24;;;;;;;5.80;4.25;;;;;;;;;;4941386;28;20051;-82
2023/06/08 16:38:10;;;;;;;7.53;4.70;;;;;;;;;;4966767;28;20600;-82
2023/06/08 16:40:56;;;;;;;6.00;4.50;;;;;;;;;;4950893;28;20051;-82
2023/06/08 16:43:44;;;;;;;7.10;4.85;;;;;;;;;;4953070;28;20087;-83